Time;durP1;ratioP1;P1;durP2;ratioP2;P2;SDS_P1;SDS_P2;PMS_P1;PMS_P2;Temp;Humidity;BMP_temperature;BMP_pressure;BME280_temperature;BME280_humidity;BME280_pressure;Samples;Min_cycle;Max_cycle;Signal;HPM_P1;HPM_P2
2023/07/29 00:01:36;;;;;;;8.68;3.92;;;;;;;19.46;100.00;99899.30;1454459;90;22218;-79
2023/07/29 00:04:02;;;;;;;4.45;3.75;;;;;;;19.47;100.00;99900.92;1443938;90;21560;-78
2023/07/29 00:06:28;;;;;;;7.62;4.03;;;;;;;19.48;100.00;99901.22;1450851;90;21412;-78
2023/07/29 00:08:59;;;;;;;4.80;3.72;;;;;;;19.46;100.00;99897.95;1452874;90;22117;-78
2023/07/29 00:11:25;;;;;;;5.50;3.58;;;;;;;19.45;100.00;99903.00;1446085;89;22328;-78
2023/07/29 00:13:52;;;;;;;8.18;3.72;;;;;;;19.44;100.00;99902.71;1449884;90;21390;-78
2023/07/29 00:16:21;;;;;;;6.70;4.37;;;;;;;19.43;100.00;99901.08;1447746;90;22284;-78
2023/07/29 00:18:46;;;;;;;13.45;4.40;;;;;;;19.45;100.00;99903.00;1446889;90;22270;-78
2023/07/29 00:21:13;;;;;;;4.35;3.95;;;;;;;19.44;100.00;99902.19;1453815;90;21441;-78
2023/07/29 00:23:39;;;;;;;6.33;3.75;;;;;;;19.44;100.00;99896.00;1452054;89;21607;-78
2023/07/29 00:26:05;;;;;;;6.05;3.60;;;;;;;19.44;100.00;99902.19;1451727;90;21397;-79
2023/07/29 00:28:32;;;;;;;10.03;4.78;;;;;;;19.44;100.00;99898.16;1447988;90;21526;-78
2023/07/29 00:31:07;;;;;;;5.67;3.87;;;;;;;19.44;100.00;99893.31;1437892;90;22507;-79
2023/07/29 00:33:34;;;;;;;8.20;3.90;;;;;;;19.46;100.00;99899.30;1449141;89;21600;-78
2023/07/29 00:36:03;;;;;;;7.80;4.30;;;;;;;19.45;100.00;99896.30;1445897;90;21382;-79
2023/07/29 00:38:29;;;;;;;7.87;3.98;;;;;;;19.43;100.00;99896.52;1452861;90;21436;-79
2023/07/29 00:40:58;;;;;;;8.85;5.25;;;;;;;19.42;100.00;99898.92;1448609;90;21435;-78
2023/07/29 00:43:25;;;;;;;4.83;4.30;;;;;;;19.42;100.00;99898.07;1447771;90;21516;-78
2023/07/29 00:45:52;;;;;;;5.17;3.85;;;;;;;19.39;100.00;99897.48;1456371;90;22292;-78
2023/07/29 00:48:19;;;;;;;8.33;3.12;;;;;;;19.37;100.00;99898.74;1451856;90;21391;-78
2023/07/29 00:50:45;;;;;;;6.97;4.03;;;;;;;19.34;100.00;99895.16;1452693;89;21523;-79
2023/07/29 00:53:11;;;;;;;14.78;4.50;;;;;;;19.31;100.00;99897.75;1448450;90;22465;-78
2023/07/29 00:55:38;;;;;;;4.72;3.80;;;;;;;19.26;100.00;99900.78;1431594;90;21926;-79
2023/07/29 00:58:04;;;;;;;7.40;4.37;;;;;;;19.23;100.00;99895.33;1456805;90;21582;-79
2023/07/29 01:00:30;;;;;;;5.92;3.85;;;;;;;19.19;100.00;99894.13;1447730;90;22189;-79
2023/07/29 01:02:57;;;;;;;5.28;4.45;;;;;;;19.16;100.00;99889.17;1451138;90;21398;-78
2023/07/29 01:05:27;;;;;;;3.92;3.30;;;;;;;19.13;100.00;99889.11;1441936;90;21390;-79
2023/07/29 01:07:57;;;;;;;;;;;;;;;19.10;100.00;99886.87;1456613;90;21442;-79
2023/07/29 01:10:55;;;;;;;9.20;3.83;;;;;;;19.06;100.00;99878.93;1445437;90;20359;-79
2023/07/29 01:13:36;;;;;;;8.20;3.80;;;;;;;19.03;100.00;99885.25;1452115;90;21435;-79
2023/07/29 01:16:13;;;;;;;8.15;4.17;;;;;;;19.00;100.00;99887.03;1454973;90;21383;-79
2023/07/29 01:18:40;;;;;;;5.97;3.50;;;;;;;18.97;100.00;99880.76;1448243;90;21655;-78
2023/07/29 01:21:09;;;;;;;11.20;3.80;;;;;;;18.94;100.00;99880.14;1452140;90;21455;-78
2023/07/29 01:23:36;;;;;;;6.20;4.10;;;;;;;18.94;100.00;99888.19;1446783;90;21427;-78
2023/07/29 01:26:03;;;;;;;4.60;3.53;;;;;;;18.94;100.00;99893.55;1451697;90;21375;-78
2023/07/29 01:28:31;;;;;;;9.43;3.55;;;;;;;18.88;100.00;99885.03;1452261;90;21405;-78
2023/07/29 01:31:18;;;;;;;6.72;3.95;;;;;;;18.80;100.00;99889.30;1452385;90;22381;-78
2023/07/29 01:33:49;;;;;;;5.23;3.90;;;;;;;18.78;100.00;99886.00;1420340;90;21523;-79
2023/07/29 01:36:23;;;;;;;6.53;3.47;;;;;;;18.78;100.00;99886.00;1449060;90;21516;-79
2023/07/29 01:38:51;;;;;;;10.58;4.92;;;;;;;18.79;100.00;99884.98;1457038;90;22337;-79
2023/07/29 01:41:18;;;;;;;4.30;3.70;;;;;;;18.80;100.00;99892.50;1456315;90;21442;-79
2023/07/29 01:43:46;;;;;;;6.23;3.33;;;;;;;18.78;100.00;99896.72;1452081;90;21596;-79
2023/07/29 01:46:14;;;;;;;9.50;4.13;;;;;;;18.77;100.00;99892.41;1449814;90;22248;-79
2023/07/29 01:48:40;;;;;;;9.93;3.85;;;;;;;18.78;100.00;99895.91;1446915;89;21397;-79
2023/07/29 01:51:07;;;;;;;4.83;3.50;;;;;;;18.76;100.00;99894.80;1452774;90;21680;-79
2023/07/29 01:53:33;;;;;;;9.13;4.03;;;;;;;18.76;100.00;99896.63;1448266;90;21389;-80
2023/07/29 01:56:00;;;;;;;6.20;3.57;;;;;;;18.74;100.00;99895.52;1450465;90;22931;-79
2023/07/29 01:58:26;;;;;;;4.90;3.58;;;;;;;18.74;100.00;99893.36;1460644;90;21479;-78
2023/07/29 02:00:52;;;;;;;4.77;3.20;;;;;;;18.73;100.00;99892.52;1454789;90;21903;-77
2023/07/29 02:03:18;;;;;;;5.47;3.83;;;;;;;18.73;100.00;99888.50;1448868;90;21353;-78
2023/07/29 02:05:44;;;;;;;5.27;3.77;;;;;;;18.71;100.00;99889.22;1430884;90;21397;-78
2023/07/29 02:08:11;;;;;;;8.70;4.25;;;;;;;18.70;100.00;99879.52;1452927;90;21456;-78
2023/07/29 02:10:38;;;;;;;4.97;3.80;;;;;;;18.70;100.00;99886.21;1450934;90;22509;-78
2023/07/29 02:13:04;;;;;;;7.63;3.67;;;;;;;18.69;100.00;99881.90;1447320;90;21420;-78
2023/07/29 02:15:30;;;;;;;7.03;3.57;;;;;;;18.67;100.00;99887.48;1449878;90;21485;-78
2023/07/29 02:17:59;;;;;;;7.17;4.23;;;;;;;18.66;100.00;99883.67;1449515;90;21330;-78
2023/07/29 02:20:24;;;;;;;8.43;3.67;;;;;;;18.66;100.00;99889.03;1449232;90;21390;-79
2023/07/29 02:22:51;;;;;;;4.77;3.23;;;;;;;18.64;100.00;99893.77;1449404;90;22342;-79
2023/07/29 02:25:17;;;;;;;5.07;3.17;;;;;;;18.63;100.00;99892.14;1453171;90;21353;-79
2023/07/29 02:27:43;;;;;;;8.33;4.50;;;;;;;18.62;100.00;99895.86;1456225;90;21592;-78
2023/07/29 02:30:12;;;;;;;5.73;4.00;;;;;;;18.62;100.00;99895.86;1441771;89;21464;-78
2023/07/29 02:32:38;;;;;;;5.03;3.27;;;;;;;18.61;100.00;99897.70;1428315;90;21345;-78
2023/07/29 02:35:05;;;;;;;5.63;3.30;;;;;;;18.61;100.00;99899.03;1451928;89;22306;-78
2023/07/29 02:37:32;;;;;;;5.10;3.27;;;;;;;18.61;100.00;99901.72;1429397;90;22030;-78
2023/07/29 02:40:01;;;;;;;7.00;3.87;;;;;;;18.60;100.00;99901.95;1451605;90;21494;-78
2023/07/29 02:42:27;;;;;;;7.50;3.90;;;;;;;18.59;100.00;99902.99;1449627;90;21559;-78
2023/07/29 02:44:54;;;;;;;6.00;3.50;;;;;;;18.53;100.00;99897.11;1451799;90;22425;-77
2023/07/29 02:47:20;;;;;;;10.60;3.47;;;;;;;18.39;100.00;99899.05;1447483;89;21399;-78
2023/07/29 02:49:46;;;;;;;5.33;3.43;;;;;;;18.28;100.00;99900.52;1446900;90;21412;-78
2023/07/29 02:52:12;;;;;;;5.20;3.80;;;;;;;18.23;100.00;99907.02;1451967;90;21502;-78
2023/07/29 02:54:38;;;;;;;3.90;3.47;;;;;;;18.17;100.00;99909.19;1446045;89;22342;-78
2023/07/29 02:57:05;;;;;;;5.70;3.87;;;;;;;18.16;100.00;99918.27;1447606;89;21339;-79
2023/07/29 02:59:31;;;;;;;3.87;3.17;;;;;;;18.14;100.00;99919.80;1454614;90;22285;-80
2023/07/29 03:01:57;;;;;;;6.53;3.70;;;;;;;18.13;100.00;99920.84;1453430;90;21448;-79
2023/07/29 03:04:23;;;;;;;5.63;3.57;;;;;;;18.13;100.00;99920.84;1451617;90;21324;-79
2023/07/29 03:06:49;;;;;;;6.60;3.13;;;;;;;18.13;100.00;99924.05;1455318;90;22211;-80
2023/07/29 03:09:16;;;;;;;7.15;3.25;;;;;;;18.14;100.00;99924.34;1452965;90;21390;-79
2023/07/29 03:11:42;;;;;;;5.90;3.90;;;;;;;18.17;100.00;99925.27;1446902;90;21339;-80
2023/07/29 03:14:08;;;;;;;5.17;3.35;;;;;;;18.15;100.00;99925.98;1451024;90;21390;-80
2023/07/29 03:16:34;;;;;;;9.78;4.20;;;;;;;18.13;100.00;99928.06;1449877;90;21352;-78
2023/07/29 03:19:00;;;;;;;8.37;3.63;;;;;;;18.12;100.00;99934.44;1445782;90;21368;-78
2023/07/29 03:21:27;;;;;;;10.00;3.60;;;;;;;18.11;100.00;99933.62;1446804;90;22417;-79
2023/07/29 03:23:53;;;;;;;5.63;4.27;;;;;;;18.13;100.00;99938.78;1430082;90;21956;-80
2023/07/29 03:26:19;;;;;;;6.57;3.60;;;;;;;18.12;100.00;99930.41;1445916;90;21472;-80
2023/07/29 03:28:45;;;;;;;9.27;3.63;;;;;;;18.13;100.00;99936.09;1450611;90;21524;-79
2023/07/29 03:31:12;;;;;;;3.53;3.23;;;;;;;18.15;100.00;99935.35;1457554;90;21389;-78
2023/07/29 03:33:38;;;;;;;7.07;3.73;;;;;;;18.16;100.00;99930.32;1451129;90;21426;-77
2023/07/29 03:36:05;;;;;;;8.10;3.90;;;;;;;18.15;100.00;99936.69;1458423;90;21390;-79
2023/07/29 03:38:32;;;;;;;5.47;4.23;;;;;;;18.13;100.00;99941.45;1453769;90;21353;-78
2023/07/29 03:40:59;;;;;;;5.83;3.47;;;;;;;18.15;100.00;99940.19;1447671;90;21412;-77
2023/07/29 03:43:25;;;;;;;3.73;3.30;;;;;;;18.18;100.00;99933.59;1449773;89;21436;-78
2023/07/29 03:45:51;;;;;;;7.75;3.65;;;;;;;18.18;100.00;99939.80;1453549;90;21368;-78
2023/07/29 03:48:17;;;;;;;9.20;3.60;;;;;;;18.21;100.00;99939.37;1455307;90;21369;-77
2023/07/29 03:50:43;;;;;;;4.50;3.00;;;;;;;18.23;100.00;99940.48;1456017;90;21399;-79
2023/07/29 03:53:09;;;;;;;8.83;3.72;;;;;;;18.27;100.00;99943.08;1428273;90;22395;-78
2023/07/29 03:55:36;;;;;;;6.62;3.15;;;;;;;18.32;100.00;99938.41;1451711;90;21302;-78
2023/07/29 03:58:02;;;;;;;7.22;3.98;;;;;;;18.35;100.00;99932.11;1455081;90;21368;-78
2023/07/29 04:00:28;;;;;;;9.98;3.72;;;;;;;18.40;100.00;99931.48;1451414;90;21434;-79
2023/07/29 04:02:54;;;;;;;10.03;3.55;;;;;;;18.42;100.00;99923.55;1451282;90;21567;-79
2023/07/29 04:05:21;;;;;;;4.70;3.33;;;;;;;18.46;100.00;99928.78;1451127;90;22425;-78
2023/07/29 04:07:47;;;;;;;12.50;4.03;;;;;;;18.51;100.00;99927.34;1450259;90;21383;-79
2023/07/29 04:10:14;;;;;;;5.60;4.20;;;;;;;18.53;100.00;99934.63;1447736;90;21963;-78
2023/07/29 04:12:40;;;;;;;9.70;4.67;;;;;;;18.55;100.00;99936.59;1452892;90;22233;-79
2023/07/29 04:15:07;;;;;;;4.80;3.75;;;;;;;18.57;100.00;99939.89;1439328;90;21508;-78
2023/07/29 04:17:33;;;;;;;10.55;4.08;;;;;;;18.58;100.00;99939.66;1434830;90;21382;-78
2023/07/29 04:19:59;;;;;;;6.15;3.50;;;;;;;18.62;100.00;99939.56;1448835;90;21803;-78
2023/07/29 04:22:26;;;;;;;6.95;3.67;;;;;;;18.67;100.00;99942.92;1428327;90;21472;-78
2023/07/29 04:24:52;;;;;;;13.62;4.72;;;;;;;18.72;100.00;99947.14;1429358;90;21537;-78
2023/07/29 04:27:18;;;;;;;7.95;3.27;;;;;;;18.76;100.00;99949.75;1445691;89;21465;-78
2023/07/29 04:29:44;;;;;;;10.03;3.90;;;;;;;18.79;100.00;99953.34;1446461;90;21443;-80
2023/07/29 04:32:11;;;;;;;5.75;3.80;;;;;;;18.84;100.00;99945.46;1457509;90;22314;-79
2023/07/29 04:34:37;;;;;;;7.78;3.62;;;;;;;18.92;100.00;99955.95;1453334;90;21997;-79
2023/07/29 04:37:03;;;;;;;6.62;3.85;;;;;;;19.01;100.00;99954.36;1454532;90;21397;-79
2023/07/29 04:39:29;;;;;;;4.83;3.27;;;;;;;19.11;100.00;99960.09;1443212;90;21319;-78
2023/07/29 04:41:57;;;;;;;9.50;4.62;;;;;;;19.18;100.00;99960.05;1446203;90;21412;-79
2023/07/29 04:44:23;;;;;;;8.65;3.37;;;;;;;19.24;100.00;99963.21;1448491;90;21487;-79
2023/07/29 04:46:49;;;;;;;10.43;4.42;;;;;;;19.30;100.00;99963.16;1452306;90;21413;-79
2023/07/29 04:49:15;;;;;;;7.08;5.03;;;;;;;19.35;100.00;99965.21;1449064;90;21389;-79
2023/07/29 04:51:41;;;;;;;7.72;4.12;;;;;;;19.41;100.00;99967.55;1449134;90;22190;-79
2023/07/29 04:54:07;;;;;;;12.10;5.20;;;;;;;19.46;100.00;99969.07;1431094;90;21368;-78
2023/07/29 04:56:33;;;;;;;8.95;4.67;;;;;;;19.53;100.00;99970.64;1445844;90;21368;-79
2023/07/29 04:58:59;;;;;;;9.68;4.37;;;;;;;19.61;100.00;99966.89;1452871;90;22313;-78
2023/07/29 05:01:25;;;;;;;7.20;4.10;;;;;;;19.69;100.00;99975.23;1428490;90;21397;-79
2023/07/29 05:03:51;;;;;;;4.72;4.22;;;;;;;19.77;100.00;99972.28;1464523;90;21294;-78
2023/07/29 05:06:17;;;;;;;8.18;4.65;;;;;;;19.86;100.00;99977.67;1449667;90;22440;-78
2023/07/29 05:08:43;;;;;;;13.35;4.10;;;;;;;19.99;100.00;99982.09;1455046;90;21486;-78
2023/07/29 05:11:10;;;;;;;8.65;4.28;;;;;;;20.12;100.00;99981.99;1450419;90;21375;-81
2023/07/29 05:13:37;;;;;;;5.60;4.85;;;;;;;20.27;100.00;99978.95;1453444;90;21458;-81
2023/07/29 05:16:04;;;;;;;6.47;4.78;;;;;;;20.43;100.00;99977.56;1453269;90;21346;-82
2023/07/29 05:18:30;;;;;;;5.97;5.17;;;;;;;20.60;100.00;99978.64;1437085;90;21375;-82
2023/07/29 05:20:56;;;;;;;25.45;6.33;;;;;;;20.71;100.00;99979.24;1453697;90;22338;-81
2023/07/29 05:23:22;;;;;;;8.18;4.70;;;;;;;20.85;100.00;99975.84;1458207;89;21457;-82
2023/07/29 05:25:48;;;;;;;5.70;4.00;;;;;;;20.94;100.00;99981.73;1451902;90;21315;-81
2023/07/29 05:28:14;;;;;;;9.23;5.35;;;;;;;21.02;100.00;99977.39;1450812;90;21434;-82
2023/07/29 05:30:40;;;;;;;6.72;3.83;;;;;;;21.08;100.00;99985.08;1451293;90;22403;-81
2023/07/29 05:33:10;;;;;;;7.08;4.50;;;;;;;21.15;100.00;99989.34;1455685;90;21383;-82
2023/07/29 05:35:37;;;;;;;5.37;4.10;;;;;;;21.22;100.00;99983.04;1452080;90;21420;-81
2023/07/29 05:38:05;;;;;;;6.83;4.47;;;;;;;21.24;100.00;99986.33;1454713;90;21479;-81
2023/07/29 05:40:31;;;;;;;7.05;3.65;;;;;;;21.26;100.00;99989.59;1450027;90;21411;-81
2023/07/29 05:42:57;;;;;;;5.95;3.60;;;;;;;21.30;100.00;99990.80;1455215;89;22395;-82
2023/07/29 05:45:23;;;;;;;8.13;5.58;;;;;;;21.36;100.00;99983.15;1446801;90;21627;-81
2023/07/29 05:47:49;;;;;;;9.78;3.92;;;;;;;21.41;100.00;99987.36;1450775;90;21353;-81
2023/07/29 05:50:15;;;;;;;3.80;3.30;;;;;;;21.45;100.00;99979.11;1448622;90;21389;-81
2023/07/29 05:52:41;;;;;;;5.08;3.58;;;;;;;21.51;100.00;99982.22;1455070;90;21390;-81
2023/07/29 05:55:08;;;;;;;5.17;3.37;;;;;;;21.55;100.00;99985.27;1442994;90;22403;-81
2023/07/29 05:57:34;;;;;;;7.08;4.17;;;;;;;21.61;100.00;99990.58;1453715;89;21331;-81
2023/07/29 06:00:00;;;;;;;5.85;3.87;;;;;;;21.67;100.00;99992.87;1448791;90;21444;-80
2023/07/29 06:02:26;;;;;;;7.72;3.58;;;;;;;21.76;100.00;99996.86;1433617;90;22307;-80
2023/07/29 06:04:53;;;;;;;5.90;4.33;;;;;;;21.82;100.00;100001.85;1457302;90;22506;-81
2023/07/29 06:07:19;;;;;;;6.12;4.03;;;;;;;21.83;100.00;99996.22;1456790;90;21427;-81
2023/07/29 06:09:46;;;;;;;7.00;3.17;;;;;;;21.93;100.00;100002.40;1436638;90;22357;-81
2023/07/29 06:12:12;;;;;;;4.83;3.52;;;;;;;22.01;100.00;100000.71;1449374;90;21385;-81
2023/07/29 06:14:40;;;;;;;6.72;4.28;;;;;;;22.08;100.00;99998.71;1451847;90;21503;-81
2023/07/29 06:17:06;;;;;;;8.35;3.58;;;;;;;22.24;100.00;99999.08;1432713;90;21537;-80
2023/07/29 06:19:33;;;;;;;5.15;3.65;;;;;;;22.29;100.00;99999.20;1452053;90;21603;-80
2023/07/29 06:22:01;;;;;;;11.12;3.55;;;;;;;22.34;100.00;99999.33;1440742;90;21411;-81
2023/07/29 06:24:27;;;;;;;5.00;3.37;;;;;;;22.36;100.00;100005.31;1447938;90;21566;-81
2023/07/29 06:26:53;;;;;;;8.15;4.50;;;;;;;22.40;100.00;100001.61;1453462;90;21556;-81
2023/07/29 06:29:20;;;;;;;9.45;3.70;;;;;;;22.43;100.00;100008.70;1449861;90;21353;-81
2023/07/29 06:31:46;;;;;;;5.37;4.15;;;;;;;22.46;100.00;100010.92;1456752;90;22402;-81
2023/07/29 06:34:12;;;;;;;7.62;3.90;;;;;;;22.48;100.00;100006.66;1449490;90;21389;-80
2023/07/29 06:36:41;;;;;;;6.45;3.95;;;;;;;22.50;100.00;99999.97;1443739;90;22675;-81
2023/07/29 06:39:07;;;;;;;10.45;3.92;;;;;;;22.57;100.00;99995.79;1455060;90;21407;-81
2023/07/29 06:41:33;;;;;;;6.40;3.55;;;;;;;22.72;100.00;99999.33;1454087;90;21450;-81
2023/07/29 06:43:59;;;;;;;4.53;3.83;;;;;;;22.88;100.00;100002.65;1454674;90;22337;-79
2023/07/29 06:46:26;;;;;;;5.25;3.50;;;;;;;23.10;100.00;100004.70;1450578;90;21450;-79
2023/07/29 06:48:52;;;;;;;8.93;3.98;;;;;;;23.28;100.00;99996.44;1450272;90;21597;-79
2023/07/29 06:51:18;;;;;;;7.05;3.60;;;;;;;23.50;100.00;100001.13;1457638;90;21383;-80
2023/07/29 06:53:45;;;;;;;7.65;4.75;;;;;;;23.75;100.00;100007.02;1453062;89;21352;-80
2023/07/29 06:56:11;;;;;;;13.05;5.08;;;;;;;23.98;100.00;100006.57;1454427;90;21404;-79
2023/07/29 06:58:38;;;;;;;5.70;3.85;;;;;;;24.21;100.00;100007.73;1457042;90;21375;-79
2023/07/29 07:01:04;;;;;;;8.43;3.65;;;;;;;24.31;100.00;100006.55;1451602;90;21361;-80
2023/07/29 07:03:30;;;;;;;6.15;4.37;;;;;;;24.36;100.00;100004.97;1441730;90;21389;-80
2023/07/29 07:05:56;;;;;;;6.75;3.87;;;;;;;24.36;100.00;100005.78;1454256;90;22323;-82
2023/07/29 07:08:22;;;;;;;4.55;3.87;;;;;;;24.34;100.00;100007.94;1453268;90;21389;-80
2023/07/29 07:10:48;;;;;;;11.08;4.17;;;;;;;24.23;100.00;100008.31;1447324;90;21420;-80
2023/07/29 07:13:23;;;;;;;7.47;4.15;;;;;;;24.20;100.00;100006.11;1445353;90;21479;-81
2023/07/29 07:15:50;;;;;;;3.60;3.22;;;;;;;24.21;100.00;99999.63;1453277;90;21375;-79
2023/07/29 07:18:16;;;;;;;6.78;3.50;;;;;;;24.35;100.00;99991.18;1451106;90;22315;-81
2023/07/29 07:20:42;;;;;;;7.03;2.90;;;;;;;24.56;100.00;99995.81;1449562;90;22478;-81
2023/07/29 07:23:11;;;;;;;6.67;4.30;;;;;;;24.82;100.00;99990.73;1443329;90;21472;-81
2023/07/29 07:25:42;;;;;;;6.28;3.05;;;;;;;24.99;100.00;99990.94;1532244;90;21450;-80
2023/07/29 07:28:11;;;;;;;5.50;3.37;;;;;;;25.06;100.00;100002.09;1382740;90;22130;-81
2023/07/29 07:37:46;;;;;;;9.63;3.65;;;;;;;24.78;97.54;100007.20;1533596;90;22079;-79
2023/07/29 07:40:12;;;;;;;5.17;3.12;;;;;;;24.59;97.88;100014.25;1383752;90;21494;-80
2023/07/29 07:42:38;;;;;;;6.85;3.50;;;;;;;24.61;97.96;100012.12;1378522;89;21346;-82
2023/07/29 07:45:05;;;;;;;5.45;3.60;;;;;;;24.73;97.95;100008.75;1523070;90;21479;-80
2023/07/29 07:47:31;;;;;;;8.18;3.80;;;;;;;24.89;97.83;100006.27;1527520;89;22220;-81
2023/07/29 07:49:58;;;;;;;5.42;3.42;;;;;;;24.87;96.68;100005.69;1360996;91;21272;-80
2023/07/29 07:52:24;;;;;;;6.80;3.65;;;;;;;24.87;96.36;100006.50;1383517;90;21588;-81
2023/07/29 07:54:53;;;;;;;9.80;3.58;;;;;;;24.96;96.76;99999.56;1377757;90;21414;-81
2023/07/29 07:57:21;;;;;;;5.25;4.00;;;;;;;25.14;97.30;100005.20;1380338;90;21340;-81
2023/07/29 07:59:47;;;;;;;5.65;3.60;;;;;;;25.27;96.47;100001.30;1533574;90;22020;-82
2023/07/29 08:02:14;;;;;;;7.72;3.15;;;;;;;25.34;96.01;99991.61;1360551;91;21310;-81
2023/07/29 08:04:40;;;;;;;6.87;3.45;;;;;;;25.38;95.71;99994.10;1360863;91;21420;-80
2023/07/29 08:07:18;;;;;;;4.60;3.10;;;;;;;25.52;94.88;99987.20;1507868;90;22145;-80
2023/07/29 08:09:44;;;;;;;6.17;3.30;;;;;;;25.66;94.12;99990.27;1383834;90;21524;-82
2023/07/29 08:12:10;;;;;;;5.78;3.65;;;;;;;25.72;92.30;99993.84;1378123;90;21234;-81
2023/07/29 08:14:37;;;;;;;5.15;3.00;;;;;;;25.74;91.53;99996.58;1383845;90;21353;-81
2023/07/29 08:17:03;;;;;;;4.22;3.00;;;;;;;25.77;89.40;99989.83;1533552;90;21198;-81
2023/07/29 08:19:29;;;;;;;4.87;3.12;;;;;;;25.81;89.01;99988.25;1377946;90;22101;-81
2023/07/29 08:26:00;;;;;;;4.83;3.15;;;;;;;25.76;89.49;99990.92;1533740;90;21221;-82
2023/07/29 08:28:25;;;;;;;4.55;2.90;;;;;;;25.75;89.60;99983.84;1533499;90;21302;-80
2023/07/29 08:30:51;;;;;;;9.23;3.50;;;;;;;25.76;89.05;99985.50;1378291;90;21600;-81
2023/07/29 08:36:41;;;;;;;7.35;3.17;;;;;;;25.85;88.76;99986.68;1533706;90;21333;-80
2023/07/29 08:39:07;;;;;;;4.47;3.00;;;;;;;25.97;88.47;99983.23;1384253;90;21302;-80
2023/07/29 08:46:13;;;;;;;6.67;3.50;;;;;;;26.16;86.81;99985.55;1533554;90;21325;-81
2023/07/29 08:48:43;;;;;;;10.28;3.20;;;;;;;26.31;87.34;99980.21;1527015;90;21420;-81
2023/07/29 08:51:11;;;;;;;7.30;3.08;;;;;;;26.43;86.40;99977.29;1376800;89;21406;-80
2023/07/29 08:53:39;;;;;;;5.65;3.00;;;;;;;26.40;85.69;99972.39;1376457;90;21258;-81
2023/07/29 08:56:16;;;;;;;4.17;3.47;;;;;;;26.46;85.37;99977.57;1382439;90;21431;-83
2023/07/29 08:58:43;;;;;;;3.25;2.37;;;;;;;26.54;86.20;99979.82;1377244;90;21235;-81
2023/07/29 09:01:09;;;;;;;4.92;3.22;;;;;;;26.65;86.08;99985.31;1382015;90;21265;-81
2023/07/29 09:03:36;;;;;;;6.10;3.12;;;;;;;26.76;84.87;99983.73;1533561;90;21191;-83
2023/07/29 09:06:03;;;;;;;8.18;3.33;;;;;;;26.90;85.04;99979.14;1377002;90;21244;-82
2023/07/29 09:08:30;;;;;;;7.33;3.00;;;;;;;27.03;84.87;99975.12;1382738;90;21273;-82
2023/07/29 09:10:56;;;;;;;4.10;3.15;;;;;;;27.04;82.54;99972.13;1378866;90;21257;-81
2023/07/29 09:13:22;;;;;;;5.20;2.92;;;;;;;27.14;83.53;99980.86;1383561;90;21376;-81
2023/07/29 09:20:29;;;;;;;6.08;3.08;;;;;;;27.19;82.38;99975.48;1491758;90;21479;-81
2023/07/29 09:23:04;;;;;;;5.87;3.25;;;;;;;27.43;83.37;99968.98;1442301;90;21553;-82
2023/07/29 09:25:30;;;;;;;5.67;3.40;;;;;;;27.70;82.85;99970.61;1442026;90;21478;-81
2023/07/29 09:28:01;;;;;;;4.78;2.92;;;;;;;27.84;81.56;99977.17;1444502;90;21411;-81
2023/07/29 09:30:27;;;;;;;4.22;3.33;;;;;;;27.88;80.41;99975.55;1440851;90;21464;-81
2023/07/29 09:32:58;;;;;;;5.40;3.17;;;;;;;27.92;80.09;99973.09;1443095;90;21389;-83
2023/07/29 09:35:28;;;;;;;14.03;4.10;;;;;;;27.92;79.97;99970.37;1496004;90;21552;-80
2023/07/29 09:37:55;;;;;;;5.10;3.65;;;;;;;27.92;79.98;99977.17;1440998;90;21672;-82
2023/07/29 09:40:21;;;;;;;10.98;3.10;;;;;;;27.90;80.69;99980.15;1442074;90;21545;-81
2023/07/29 09:42:52;;;;;;;5.50;3.02;;;;;;;27.95;80.77;99975.27;1447360;90;21464;-81
2023/07/29 09:45:26;;;;;;;4.95;3.00;;;;;;;28.09;81.29;99974.97;1444214;90;21345;-82
2023/07/29 09:47:56;;;;;;;5.33;3.65;;;;;;;28.26;80.97;99966.51;1443520;90;21457;-83
2023/07/29 09:50:27;;;;;;;3.67;3.33;;;;;;;28.45;80.55;99967.55;1439373;90;21501;-81
2023/07/29 09:52:55;;;;;;;5.85;3.45;;;;;;;28.57;80.36;99964.54;1442832;90;21411;-84
2023/07/29 09:55:24;;;;;;;5.47;3.60;;;;;;;28.68;80.66;99958.48;1441913;90;21382;-81
2023/07/29 09:58:02;;;;;;;8.00;3.40;;;;;;;28.71;79.93;99959.28;1405248;90;22160;-81
2023/07/29 10:00:31;;;;;;;8.90;3.00;;;;;;;28.68;78.80;99960.66;1449198;90;21449;-80
2023/07/29 10:02:59;;;;;;;6.95;2.80;;;;;;;28.68;78.87;99960.66;1448277;90;21501;-80
2023/07/29 10:05:29;;;;;;;6.37;3.40;;;;;;;28.77;79.27;99959.00;1447222;90;21545;-81
2023/07/29 10:07:56;;;;;;;4.67;3.65;;;;;;;28.89;78.18;99953.77;1450337;90;22358;-81
2023/07/29 10:14:31;;;;;;;6.35;3.00;;;;;;;28.76;78.12;99949.19;1451355;90;21486;-80
2023/07/29 10:16:58;;;;;;;5.62;3.90;;;;;;;28.61;78.13;99943.82;1454630;90;22993;-81
2023/07/29 10:19:26;;;;;;;4.72;3.45;;;;;;;28.77;78.75;99939.94;1449399;90;21368;-80
2023/07/29 10:21:55;;;;;;;7.08;3.33;;;;;;;28.89;77.22;99938.80;1453731;90;21390;-81
2023/07/29 10:24:29;;;;;;;6.07;2.63;;;;;;;28.89;75.32;99938.80;1445542;90;21448;-80
2023/07/29 10:27:01;;;;;;;4.95;3.67;;;;;;;28.86;75.92;99943.41;1453744;89;21383;-79
2023/07/29 10:29:34;;;;;;;4.15;3.35;;;;;;;28.93;75.50;99935.77;1456622;90;21420;-80
2023/07/29 10:32:06;;;;;;;7.65;3.10;;;;;;;29.10;74.73;99941.68;1452008;90;21977;-81
2023/07/29 10:38:40;;;;;;;2.90;2.47;;;;;;;29.48;73.98;99937.05;1454234;90;21655;-81
2023/07/29 10:41:06;;;;;;;5.33;3.17;;;;;;;29.67;72.03;99925.19;1429704;90;21420;-80
2023/07/29 10:43:37;;;;;;;3.85;3.37;;;;;;;29.77;71.88;99923.46;1450963;90;21331;-80
2023/07/29 10:46:18;;;;;;;8.45;3.40;;;;;;;29.90;69.53;99924.16;1429232;90;21545;-79
2023/07/29 10:48:57;;;;;;;3.70;2.95;;;;;;;29.95;69.86;99919.19;1450963;90;21618;-80
2023/07/29 10:51:35;;;;;;;4.12;3.10;;;;;;;29.97;70.47;99920.52;1450398;90;22507;-81
2023/07/29 10:54:14;;;;;;;4.08;2.98;;;;;;;30.09;69.87;99926.39;1449920;90;22278;-81
2023/07/29 10:56:45;;;;;;;12.80;3.17;;;;;;;30.19;69.24;99915.94;1451333;90;21419;-80
2023/07/29 10:59:19;;;;;;;4.00;2.70;;;;;;;30.39;69.83;99917.64;1453864;90;22543;-81
2023/07/29 11:02:00;;;;;;;4.60;2.62;;;;;;;30.56;68.98;99915.23;1450798;90;21434;-81
2023/07/29 11:04:31;;;;;;;5.10;3.55;;;;;;;30.60;67.82;99909.19;1454136;90;21383;-80
2023/07/29 11:07:12;;;;;;;5.10;2.92;;;;;;;30.55;67.42;99918.25;1448138;90;21587;-81
2023/07/29 11:10:01;;;;;;;5.15;3.35;;;;;;;30.47;66.99;99918.89;1449963;90;21382;-80
2023/07/29 11:12:42;;;;;;;13.70;3.22;;;;;;;30.28;68.09;99907.95;1449161;90;21404;-80
2023/07/29 11:15:18;;;;;;;4.58;3.80;;;;;;;30.10;68.22;99909.50;1533552;90;21295;-81
2023/07/29 11:17:57;;;;;;;6.85;4.03;;;;;;;29.96;68.74;99909.92;1533763;89;21207;-81
2023/07/29 11:20:26;;;;;;;8.50;3.05;;;;;;;29.60;67.47;99903.41;1528011;89;21309;-80
2023/07/29 11:22:54;;;;;;;4.25;2.85;;;;;;;29.70;68.84;99901.19;1375412;90;21331;-80
2023/07/29 11:25:24;;;;;;;3.30;2.95;;;;;;;29.71;68.22;99901.44;1504228;90;21515;-80
2023/07/29 11:27:57;;;;;;;7.25;3.10;;;;;;;29.59;67.87;99909.41;1509880;90;21472;-81
2023/07/29 11:30:27;;;;;;;6.70;2.65;;;;;;;29.70;68.65;99903.91;1379995;90;21332;-80
2023/07/29 11:32:55;;;;;;;3.70;2.25;;;;;;;29.94;65.20;99907.47;1374189;91;21236;-80
2023/07/29 11:35:21;;;;;;;12.73;2.50;;;;;;;30.17;65.07;99904.48;1375449;90;21384;-80
2023/07/29 12:01:36;;;;;;;5.70;2.85;;;;;;;31.63;61.58;99863.63;1489946;85;23012;-82
2023/07/29 12:04:03;;;;;;;3.15;2.50;;;;;;;31.30;60.55;99861.42;1475118;88;21596;-82
2023/07/29 12:06:31;;;;;;;8.13;2.92;;;;;;;30.97;60.71;99868.25;1469738;88;21457;-82
2023/07/29 12:08:58;;;;;;;3.30;3.00;;;;;;;30.84;61.26;99868.98;1474565;88;22484;-81
2023/07/29 12:11:24;;;;;;;7.70;2.95;;;;;;;30.60;57.17;99865.50;1466554;88;21396;-82
2023/07/29 12:13:54;;;;;;;5.45;3.25;;;;;;;30.70;58.31;99868.06;1469870;88;21506;-81
2023/07/29 12:16:20;;;;;;;;;;;;;;;30.76;57.65;99867.72;1457069;89;22240;-82
2023/07/29 12:18:48;;;;;;;5.47;2.62;;;;;;;30.78;58.71;99860.58;1434168;90;20340;-81
2023/07/29 12:21:15;;;;;;;4.40;3.30;;;;;;;30.64;57.16;99863.79;1442876;90;22485;-82
2023/07/29 12:23:41;;;;;;;4.40;3.33;;;;;;;30.40;57.77;99867.95;1439729;90;21458;-81
2023/07/29 12:26:07;;;;;;;7.05;2.77;;;;;;;30.30;58.37;99857.42;1436555;90;21563;-82